This is the latest recevied weather packets stored in our database for station/object OE-11372. If no packets are shown the sender has not sent any weather packets the latest 10 day(s).
| Time | Temp. | Humidity | Pressure | Rain* | Wind** | Luminosity | Snow |
|---|---|---|---|---|---|---|---|
| 1788086103 | 20.56° C | 56% | 854.2 hPa | 0 mm | - | 774 W/m² | - |
| 1788085503 | 20° C | 57% | 854.3 hPa | 0 mm | - | 791 W/m² | - |
| 1788084676 | 19.44° C | 56% | 854.4 hPa | 0 mm | - | 783 W/m² | - |
| 1788084303 | 18.89° C | 62% | 854.4 hPa | 0 mm | - | 659 W/m² | - |
| 1788083702 | 18.89° C | 59% | 854.4 hPa | 0 mm | - | 741 W/m² | - |
| 1788082876 | 18.33° C | 61% | 854.4 hPa | 0 mm | - | 717 W/m² | - |
| 1788082503 | 18.33° C | 61% | 854.4 hPa | 0 mm | - | 700 W/m² | - |
| 1788081902 | 17.78° C | 63% | 854.5 hPa | 0 mm | - | 684 W/m² | - |
| 1788081076 | 17.78° C | 63% | 854.6 hPa | 0 mm | - | 667 W/m² | - |
| 1788080702 | 17.78° C | 63% | 854.5 hPa | 0 mm | - | 642 W/m² | - |
| 1788080103 | 17.22° C | 65% | 854.6 hPa | 0 mm | - | 626 W/m² | - |
| 1788079276 | 16.67° C | 68% | 854.5 hPa | 0 mm | - | 601 W/m² | - |
| 1788078902 | 16.11° C | 69% | 854.4 hPa | 0 mm | - | 577 W/m² | - |
| 1788078303 | 15.56° C | 72% | 854.4 hPa | 0 mm | - | 552 W/m² | - |
| 1788077475 | 15.56° C | 74% | 854.3 hPa | 0 mm | - | 535 W/m² | - |
| 1788077103 | 15° C | 77% | 854.2 hPa | 0 mm | - | 502 W/m² | - |
| 1788076502 | 14.44° C | 80% | 854.2 hPa | 0 mm | - | 478 W/m² | - |
| 1788075675 | 14.44° C | 82% | 854 hPa | 0 mm | - | 453 W/m² | - |
| 1788075302 | 13.89° C | 83% | 854 hPa | 0 mm | - | 428 W/m² | - |
| 1788074703 | 13.89° C | 84% | 854 hPa | 0 mm | - | 387 W/m² | - |
| 1788073876 | 13.89° C | 84% | 854 hPa | 0 mm | - | 371 W/m² | - |
| 1788073502 | 12.78° C | 86% | 853.9 hPa | 0 mm | - | 288 W/m² | - |
| 1788072902 | 12.78° C | 86% | 853.9 hPa | 0 mm | - | 247 W/m² | - |
| 1788072076 | 12.22° C | 88% | 853.8 hPa | 0 mm | - | 173 W/m² | - |
| 1788071703 | 11.67° C | 90% | 853.9 hPa | 0 mm | - | 107 W/m² | - |
* Rain latest hour (hover to see other rain measurements)
** Current wind speed in m/s (hover to see current wind gust speed)